Blackrock, Ireland

8:46 PM GMT on February 06, 2016 (GMT +0000)
Claremont Views | | Change Station
CLOSE
Current Station
Personal Weather Station
Location: Foxrock, DUBLIN
Elevation: 279 ft
Nearby Weather Stations

Elev 279 ft 53.26 °N, 6.17 °W | Updated 38 seconds ago

Partly Cloudy
Partly Cloudy
42.1 °F
Feels Like 38 °F
N
6.0
Wind Variable Wind from WSW
Gusts 7.4 mph

Today
High -- | Low -- °F
--% Chance of Precip.
Yesterday
High -- | Low -- °F
Precip. -- in
Pressure 28.85 in
Visibility 6.2 miles
Clouds Few 3000 ft
Windchill 38 °F
Dew Point 33 °F
Humidity 70%
Rainfall in
Snow Depth Not available.
8:01 AM 5:16 PM
Waning Crescent, 4% visible
METAR EIDW 062030Z 23020KT 9999 FEW030 04/01 Q0977 NOSIG
Pressure 28.85 in
Visibility 6.2 miles
Clouds Few 3000 ft
Windchill 38 °F
Dew Point 33 °F
Humidity 70%
Rainfall in
Snow Depth Not available.
8:01 AM 5:16 PM
Waning Crescent, 4% visible
METAR EIDW 062030Z 23020KT 9999 FEW030 04/01 Q0977 NOSIG

10-Day Weather Forecast

Almanac

Astronomy

Feb. 06, 2016 Rise Set
Actual Time
Civil Twilight
Nautical Twilight
Astronomical Twilight
Moon
Length of Visible Light
Length of Day
Tomorrow will be .
, % of the Moon is Illuminated

Today's Extremes

Country Highs Country Lows

Community

WunderPhotos

Upload Photos

1,891,046 photos uploaded!

WunderBlog® & News

Nearby

Air Quality

  Air Quality AQ Index Pollutant
Not available.

Snow Depth

Station Depth Elevation

Earthquake Activity

City Distance Mag. Time & Date
Minimum magnitude displayed is 2.5.

Coastal Water Temperatures

Place Temperature

Stations

Nearby Weather Stations

Station Location Temp. Windchill Dew Point Humidity Wind Precip. Elev Updated Type